Franklin Park, Illinois
Current Conditions -  °F | °C
As of 12:51 PM on Thursday 18 Dec 2014 (Local Time) from KORD Reporting Station
Overcast Overcast  
Wind Chill: 19°   Ceiling: 2200
Heat Index: 27°   Visibility: 10mi
Dew Point: 18°   Wind: 7mph
Humidity: 69%   Direction: 310°NW
Pressure: 30.22"   Gusts: NA
Location:  41.94°N, 87.86°W
Report Text: KORD 181851Z 31006KT 10SM OVC022 M03/M08 A3022 RMK AO2 SLP245 T10281078
Loading
Personal Weather Stations






























Interactive Weather Map New forecast layout! Learn more

10-Day Weather Forecast

Advertisements
Track Severe Weather on mobile